Chambersburg, Illinois
Current Conditions -  °F | °C
As of 6:35 PM on Sunday 21 Dec 2014 (Local Time) from KPPQ Reporting Station
Overcast Overcast  
Wind Chill: 34°   Ceiling: 2200
Heat Index: 40°   Visibility: 10mi
Dew Point: 35°   Wind: 9mph
Humidity: 80%   Direction: 150°SSE
Pressure: 29.99"   Gusts: NA
Location:  39.82°N, 90.66°W
Report Text: KPPQ 220035Z AUTO 15008KT 10SM BKN022 BKN028 OVC047 05/02 A2999 RMK AO2 T00460015
Loading
Personal Weather Stations






























Interactive Weather Map New forecast layout! Learn more

10-Day Weather Forecast

Advertisements
Track Severe Weather on mobile